createdAt,value
2023-03-28T00:01:01.618Z,1.70
2023-03-28T00:03:29.738Z,1.80
2023-03-28T00:05:58.014Z,1.90
2023-03-28T00:08:25.032Z,1.73
2023-03-28T00:10:51.807Z,2.13
2023-03-28T00:13:20.020Z,2.70
2023-03-28T00:15:47.032Z,2.60
2023-03-28T00:18:14.461Z,2.30
2023-03-28T00:20:43.677Z,2.72
2023-03-28T00:23:12.283Z,2.30
2023-03-28T00:25:41.868Z,2.45
2023-03-28T00:28:09.322Z,2.10
2023-03-28T00:30:36.169Z,2.97
2023-03-28T00:33:05.317Z,2.65
2023-03-28T00:35:33.174Z,3.08
2023-03-28T00:37:59.947Z,1.80
2023-03-28T00:40:27.001Z,2.35
2023-03-28T00:42:54.497Z,2.20
2023-03-28T00:45:24.107Z,2.58
2023-03-28T00:48:01.830Z,1.83
2023-03-28T00:50:38.141Z,1.60
2023-03-28T00:53:15.643Z,2.00
2023-03-28T00:55:47.447Z,1.98
2023-03-28T00:58:24.840Z,1.77
2023-03-28T01:00:52.189Z,2.05
2023-03-28T01:03:20.262Z,3.03
2023-03-28T01:05:48.029Z,2.30
2023-03-28T01:08:21.996Z,2.00
2023-03-28T01:10:49.876Z,1.52
2023-03-28T01:13:24.859Z,1.85
2023-03-28T01:15:52.134Z,2.53
2023-03-28T01:18:22.916Z,2.95
2023-03-28T01:21:23.738Z,2.53
2023-03-28T01:24:12.653Z,2.25
2023-03-28T01:26:57.456Z,2.17
2023-03-28T01:30:02.427Z,2.20
2023-03-28T01:32:29.105Z,2.10
2023-03-28T01:35:14.513Z,2.10
2023-03-28T01:38:14.575Z,2.20
2023-03-28T01:40:41.393Z,2.25
2023-03-28T01:43:26.949Z,1.95
2023-03-28T01:46:16.868Z,2.30
2023-03-28T01:49:16.344Z,2.20
2023-03-28T01:52:01.251Z,1.60
2023-03-28T01:54:52.434Z,1.75
2023-03-28T01:57:28.148Z,2.05
2023-03-28T02:00:25.009Z,2.15
2023-03-28T02:02:54.631Z,1.60
2023-03-28T02:05:23.742Z,1.58
2023-03-28T02:07:52.195Z,1.75
2023-03-28T02:10:22.929Z,1.60
2023-03-28T02:12:54.475Z,2.08
2023-03-28T02:15:24.208Z,2.33
2023-03-28T02:17:56.780Z,1.70
2023-03-28T02:20:26.696Z,1.45
2023-03-28T02:23:01.483Z,1.75
2023-03-28T02:25:28.467Z,1.60
2023-03-28T02:28:01.314Z,1.70
2023-03-28T02:30:28.693Z,1.52
2023-03-28T02:33:03.655Z,1.90
2023-03-28T02:36:02.846Z,2.10
2023-03-28T02:39:02.337Z,1.55
2023-03-28T02:41:44.491Z,1.40
2023-03-28T02:44:11.266Z,1.38
2023-03-28T02:47:01.300Z,1.75
2023-03-28T02:49:50.364Z,1.88
2023-03-28T02:52:52.380Z,1.52
2023-03-28T02:55:54.695Z,1.60
2023-03-28T02:58:40.357Z,1.80
2023-03-28T03:01:07.485Z,1.48
2023-03-28T03:03:36.765Z,1.63
2023-03-28T03:06:07.172Z,1.35
2023-03-28T03:08:34.146Z,1.60
2023-03-28T03:11:00.967Z,1.52
2023-03-28T03:13:27.847Z,1.52
2023-03-28T03:15:54.749Z,1.80
2023-03-28T03:18:22.227Z,1.80
2023-03-28T03:20:50.408Z,2.28
2023-03-28T03:23:17.179Z,1.65
2023-03-28T03:25:45.426Z,1.50
2023-03-28T03:28:13.232Z,1.63
2023-03-28T03:30:40.196Z,2.05
2023-03-28T03:33:10.686Z,1.95
2023-03-28T03:35:38.343Z,1.80
2023-03-28T03:38:05.131Z,1.67
2023-03-28T03:40:32.113Z,1.60
2023-03-28T03:42:58.879Z,1.42
2023-03-28T03:45:25.847Z,1.50
2023-03-28T03:47:52.801Z,1.40
2023-03-28T03:50:19.985Z,1.63
2023-03-28T03:52:46.835Z,1.42
2023-03-28T03:55:14.608Z,1.50
2023-03-28T03:57:41.739Z,2.47
2023-03-28T04:00:12.263Z,1.50
2023-03-28T04:02:40.102Z,1.83
2023-03-28T04:05:09.325Z,2.10
2023-03-28T04:07:36.643Z,1.60
2023-03-28T04:10:04.451Z,1.60
2023-03-28T04:12:31.531Z,1.50
2023-03-28T04:14:58.254Z,1.73
2023-03-28T04:17:30.138Z,2.08
2023-03-28T04:19:57.105Z,1.85
2023-03-28T04:22:24.210Z,1.92
2023-03-28T04:24:53.547Z,1.77
2023-03-28T04:27:20.299Z,2.00
2023-03-28T04:29:47.015Z,1.80
2023-03-28T04:32:13.845Z,1.83
2023-03-28T04:34:40.599Z,2.08
2023-03-28T04:37:09.371Z,1.80
2023-03-28T04:39:36.193Z,1.92
2023-03-28T04:42:05.563Z,2.13
2023-03-28T04:44:32.445Z,1.58
2023-03-28T04:47:00.020Z,3.25
2023-03-28T04:49:26.930Z,2.03
2023-03-28T04:51:53.716Z,1.70
2023-03-28T04:54:20.950Z,2.28
2023-03-28T04:56:51.032Z,1.80
2023-03-28T04:59:18.119Z,1.80
2023-03-28T05:01:50.852Z,2.00
2023-03-28T05:04:18.914Z,2.25
2023-03-28T05:06:46.495Z,1.98
2023-03-28T05:09:13.595Z,2.17
2023-03-28T05:11:40.953Z,2.40
2023-03-28T05:14:07.756Z,2.17
2023-03-28T05:16:34.555Z,1.80
2023-03-28T05:19:01.810Z,1.73
2023-03-28T05:21:28.967Z,1.60
2023-03-28T05:23:55.717Z,1.48
2023-03-28T05:26:22.637Z,2.00
2023-03-28T05:28:49.774Z,1.92
2023-03-28T05:31:17.507Z,2.15
2023-03-28T05:33:44.315Z,1.95
2023-03-28T05:36:13.084Z,1.90
2023-03-28T05:38:39.913Z,2.05
2023-03-28T05:41:06.966Z,2.05
2023-03-28T05:43:33.657Z,2.42
2023-03-28T05:46:00.542Z,2.33
2023-03-28T05:48:27.335Z,1.98
2023-03-28T05:50:54.130Z,1.80
2023-03-28T05:53:20.852Z,2.10
2023-03-28T05:55:49.573Z,1.95
2023-03-28T05:58:16.378Z,2.30
2023-03-28T06:00:44.945Z,1.83
2023-03-28T06:03:16.498Z,2.58
2023-03-28T06:05:43.978Z,2.13
2023-03-28T06:08:10.975Z,2.00
2023-03-28T06:10:37.813Z,3.42
2023-03-28T06:13:06.067Z,2.03
2023-03-28T06:15:33.403Z,2.03
2023-03-28T06:18:00.148Z,2.00
2023-03-28T06:20:29.455Z,1.80
2023-03-28T06:22:56.212Z,1.77
2023-03-28T06:25:22.902Z,2.00
2023-03-28T06:27:49.574Z,2.08
2023-03-28T06:30:16.264Z,2.33
2023-03-28T06:32:43.054Z,1.90
2023-03-28T06:35:10.020Z,2.40
2023-03-28T06:37:36.712Z,2.20
2023-03-28T06:40:03.859Z,2.35
2023-03-28T06:42:30.629Z,2.17
2023-03-28T06:44:57.309Z,2.78
2023-03-28T06:47:24.007Z,2.50
2023-03-28T06:49:50.742Z,2.33
2023-03-28T06:52:17.533Z,2.85
2023-03-28T06:54:45.325Z,2.28
2023-03-28T06:57:13.452Z,2.17
2023-03-28T06:59:40.195Z,2.53
2023-03-28T07:02:07.019Z,2.92
2023-03-28T07:04:35.024Z,3.63
2023-03-28T07:07:01.994Z,2.15
2023-03-28T07:09:28.940Z,3.00
2023-03-28T07:11:55.780Z,2.30
2023-03-28T07:14:22.544Z,2.67
2023-03-28T07:16:49.368Z,2.30
2023-03-28T07:19:16.261Z,2.47
2023-03-28T07:21:43.280Z,2.40
2023-03-28T07:24:10.422Z,2.88
2023-03-28T07:26:37.095Z,2.65
2023-03-28T07:29:03.930Z,2.40
2023-03-28T07:31:31.145Z,2.72
2023-03-28T07:33:58.309Z,2.10
2023-03-28T07:36:27.137Z,2.38
2023-03-28T07:38:54.200Z,2.13
2023-03-28T07:41:22.740Z,2.55
2023-03-28T07:43:49.538Z,2.85
2023-03-28T07:46:16.518Z,2.10
2023-03-28T07:48:45.663Z,2.85
2023-03-28T07:51:14.832Z,2.38
2023-03-28T07:53:41.614Z,2.85
2023-03-28T07:56:10.817Z,2.40
2023-03-28T07:58:39.376Z,2.40
2023-03-28T08:01:12.123Z,2.42
2023-03-28T08:03:39.747Z,2.22
2023-03-28T08:06:20.068Z,2.90
2023-03-28T08:08:52.211Z,2.03
2023-03-28T08:11:18.951Z,3.38
2023-03-28T08:13:45.655Z,1.98
2023-03-28T08:16:12.345Z,2.40
2023-03-28T08:18:39.213Z,3.45
2023-03-28T08:21:06.273Z,2.45
2023-03-28T08:23:32.904Z,2.50
2023-03-28T08:26:06.405Z,2.65
2023-03-28T08:28:34.817Z,2.90
2023-03-28T08:31:03.092Z,1.90
2023-03-28T08:33:30.035Z,2.17
2023-03-28T08:35:57.178Z,2.13
2023-03-28T08:38:24.495Z,2.47
2023-03-28T08:41:29.838Z,3.03
2023-03-28T08:44:30.074Z,2.42
2023-03-28T08:47:05.951Z,1.90
2023-03-28T08:49:44.072Z,2.60
2023-03-28T08:52:16.546Z,2.70
2023-03-28T08:54:43.190Z,2.40
2023-03-28T08:57:17.890Z,2.42
2023-03-28T09:00:31.365Z,2.17
2023-03-28T09:02:59.114Z,2.40
2023-03-28T09:05:44.494Z,2.58
2023-03-28T09:08:23.320Z,2.20
2023-03-28T09:11:02.098Z,2.65
2023-03-28T09:14:16.224Z,2.67
2023-03-28T09:16:57.408Z,2.30
2023-03-28T09:19:47.877Z,2.40
2023-03-28T09:22:33.257Z,2.38
2023-03-28T09:25:21.718Z,2.78
2023-03-28T09:28:29.077Z,4.43
2023-03-28T09:30:58.939Z,2.67
2023-03-28T09:33:30.531Z,3.63
2023-03-28T09:35:57.737Z,2.95
2023-03-28T09:38:33.530Z,2.38
2023-03-28T09:41:05.696Z,3.47
2023-03-28T09:43:39.638Z,3.00
2023-03-28T09:46:18.792Z,2.80
2023-03-28T09:48:45.807Z,2.90
2023-03-28T09:51:18.308Z,2.80
2023-03-28T09:53:45.022Z,2.87
2023-03-28T09:56:33.285Z,3.63
2023-03-28T09:59:02.662Z,3.83
2023-03-28T10:01:46.421Z,4.60
2023-03-28T10:04:39.438Z,4.03
2023-03-28T10:07:09.204Z,3.28
2023-03-28T10:09:47.878Z,2.90
2023-03-28T10:12:42.038Z,3.70
2023-03-28T10:15:43.456Z,3.20
2023-03-28T10:18:19.627Z,2.50
2023-03-28T10:20:48.964Z,3.60
2023-03-28T10:23:16.204Z,2.83
2023-03-28T10:25:46.236Z,3.20
2023-03-28T10:28:21.087Z,4.65
2023-03-28T10:30:57.799Z,3.30
2023-03-28T10:33:30.948Z,3.50
2023-03-28T10:36:11.040Z,2.95
2023-03-28T10:38:48.849Z,3.45
2023-03-28T10:41:25.871Z,3.55
2023-03-28T10:43:53.976Z,2.53
2023-03-28T10:46:22.125Z,3.30
2023-03-28T10:49:01.408Z,4.45
2023-03-28T10:51:31.458Z,2.78
2023-03-28T10:54:06.853Z,4.03
2023-03-28T10:56:57.756Z,3.30
2023-03-28T10:59:40.701Z,3.20
2023-03-28T11:02:07.441Z,2.95
2023-03-28T11:04:57.937Z,4.20
2023-03-28T11:08:01.814Z,3.28
2023-03-28T11:10:41.846Z,3.03
2023-03-28T11:13:23.660Z,2.63
2023-03-28T11:15:59.507Z,3.15
2023-03-28T11:18:53.503Z,4.13
2023-03-28T11:21:27.022Z,3.30
2023-03-28T11:23:56.647Z,4.13
2023-03-28T11:26:32.428Z,3.50
2023-03-28T11:29:08.515Z,3.85
2023-03-28T11:31:51.375Z,3.42
2023-03-28T11:34:21.929Z,3.53
2023-03-28T11:37:13.571Z,2.80
2023-03-28T11:39:54.473Z,4.53
2023-03-28T11:42:27.449Z,4.13
2023-03-28T11:45:02.713Z,4.32
2023-03-28T11:47:42.753Z,4.10
2023-03-28T11:50:18.944Z,3.92
2023-03-28T11:52:56.958Z,4.60
2023-03-28T11:55:32.934Z,4.93
2023-03-28T11:58:16.077Z,4.93
2023-03-28T12:01:11.424Z,3.95
2023-03-28T12:03:38.972Z,4.35
2023-03-28T12:06:27.107Z,6.28
2023-03-28T12:09:02.899Z,5.10
2023-03-28T12:11:52.879Z,5.00
2023-03-28T12:14:34.077Z,6.40
2023-03-28T12:17:11.207Z,4.20
2023-03-28T12:19:40.399Z,6.13
2023-03-28T12:22:21.384Z,5.47
2023-03-28T12:25:09.165Z,5.20
2023-03-28T12:28:15.726Z,5.50
2023-03-28T12:30:59.098Z,5.15
2023-03-28T12:33:50.719Z,4.00
2023-03-28T12:36:34.224Z,5.38
2023-03-28T12:41:37.696Z,7.70
2023-03-28T12:44:11.066Z,6.00
2023-03-28T12:46:46.231Z,5.78
2023-03-28T12:49:42.297Z,5.90
2023-03-28T12:52:16.141Z,5.28
2023-03-28T12:55:08.115Z,6.15
2023-03-28T12:57:46.012Z,6.13
2023-03-28T13:00:31.712Z,6.85
2023-03-28T13:03:07.149Z,6.07
2023-03-28T13:05:55.866Z,6.45
2023-03-28T13:08:35.752Z,6.47
2023-03-28T13:11:17.072Z,6.10
2023-03-28T13:13:59.275Z,6.80
2023-03-28T13:16:48.229Z,6.88
2023-03-28T13:19:18.606Z,5.93
2023-03-28T13:21:46.467Z,5.55
2023-03-28T13:24:25.632Z,6.72
2023-03-28T13:27:14.218Z,6.25
2023-03-28T13:29:45.455Z,7.28
2023-03-28T13:32:19.086Z,7.03
2023-03-28T13:34:52.547Z,8.30
2023-03-28T13:37:41.906Z,5.57
2023-03-28T13:40:44.191Z,7.63
2023-03-28T13:43:26.546Z,8.07
2023-03-28T13:45:58.429Z,7.18
2023-03-28T13:48:32.668Z,7.68
2023-03-28T13:51:04.743Z,7.45
2023-03-28T13:53:46.534Z,7.70
2023-03-28T13:56:19.034Z,7.27
2023-03-28T13:58:49.016Z,6.93
2023-03-28T14:01:18.502Z,8.07
2023-03-28T14:03:48.612Z,8.23
2023-03-28T14:06:20.820Z,8.02
2023-03-28T14:08:51.882Z,8.18
2023-03-28T14:11:23.952Z,7.85
2023-03-28T14:13:59.558Z,7.88
2023-03-28T14:16:26.496Z,8.00
2023-03-28T14:18:53.378Z,6.88
2023-03-28T14:21:24.202Z,7.88
2023-03-28T14:23:59.953Z,7.50
2023-03-28T14:26:30.139Z,6.50
2023-03-28T14:29:07.223Z,7.03
2023-03-28T14:31:40.774Z,7.32
2023-03-28T14:34:16.381Z,8.40
2023-03-28T14:37:06.475Z,7.47
2023-03-28T14:39:36.669Z,7.57
2023-03-28T14:42:06.663Z,6.07
2023-03-28T14:45:03.375Z,7.50
2023-03-28T14:47:33.423Z,6.22
2023-03-28T14:50:01.512Z,7.93
2023-03-28T14:52:30.908Z,8.30
2023-03-28T14:54:58.804Z,8.25
2023-03-28T14:57:26.521Z,8.18
2023-03-28T14:59:56.454Z,7.93
2023-03-28T15:02:28.689Z,7.25
2023-03-28T15:04:58.590Z,8.15
2023-03-28T15:07:28.446Z,9.07
2023-03-28T15:10:11.325Z,7.05
2023-03-28T15:12:46.729Z,9.38
2023-03-28T15:15:38.386Z,7.82
2023-03-28T15:18:11.323Z,7.78
2023-03-28T15:20:39.324Z,7.35
2023-03-28T15:23:13.708Z,8.43
2023-03-28T15:25:43.832Z,6.72
2023-03-28T15:28:16.714Z,8.70
2023-03-28T15:30:45.649Z,7.43
2023-03-28T15:33:24.800Z,7.38
2023-03-28T15:36:06.019Z,6.55
2023-03-28T15:38:38.527Z,6.65
2023-03-28T15:41:19.409Z,6.15
2023-03-28T15:43:55.786Z,5.72
2023-03-28T15:46:31.505Z,5.45
2023-03-28T15:49:00.462Z,5.38
2023-03-28T15:51:27.844Z,5.38
2023-03-28T15:53:55.803Z,5.82
2023-03-28T15:56:24.975Z,4.00
2023-03-28T15:58:52.764Z,5.07
2023-03-28T16:01:23.955Z,4.63
2023-03-28T16:03:52.458Z,4.78
2023-03-28T16:06:31.828Z,4.93
2023-03-28T16:09:17.699Z,6.10
2023-03-28T16:11:46.176Z,5.13
2023-03-28T16:14:18.535Z,5.38
2023-03-28T16:16:45.878Z,5.37
2023-03-28T16:19:25.983Z,4.43
2023-03-28T16:21:52.972Z,4.80
2023-03-28T16:24:20.386Z,3.85
2023-03-28T16:26:48.312Z,4.70
2023-03-28T16:29:15.132Z,4.85
2023-03-28T16:31:42.059Z,5.75
2023-03-28T16:34:10.167Z,5.55
2023-03-28T16:36:38.093Z,5.10
2023-03-28T16:39:08.530Z,5.07
2023-03-28T16:41:35.853Z,5.90
2023-03-28T16:44:02.858Z,5.93
2023-03-28T16:46:29.674Z,6.13
2023-03-28T16:48:56.444Z,6.03
2023-03-28T16:51:23.322Z,5.15
2023-03-28T16:53:50.065Z,5.60
2023-03-28T16:56:18.013Z,5.00
2023-03-28T16:58:45.088Z,6.03
2023-03-28T17:01:19.210Z,5.18
2023-03-28T17:03:47.109Z,5.65
2023-03-28T17:06:14.937Z,7.35
2023-03-28T17:08:41.867Z,8.60
2023-03-28T17:11:11.386Z,7.57
2023-03-28T17:13:39.705Z,8.45
2023-03-28T17:16:07.972Z,7.32
2023-03-28T17:18:35.760Z,7.25
2023-03-28T17:21:13.283Z,10.75
2023-03-28T17:23:41.434Z,8.25
2023-03-28T17:26:10.211Z,9.77
2023-03-28T17:28:42.165Z,11.52
2023-03-28T17:31:18.697Z,8.90
2023-03-28T17:33:47.527Z,7.65
2023-03-28T17:36:19.677Z,7.90
2023-03-28T17:38:49.039Z,9.10
2023-03-28T17:41:16.475Z,9.13
2023-03-28T17:43:43.834Z,8.25
2023-03-28T17:46:12.128Z,7.13
2023-03-28T17:48:40.811Z,7.70
2023-03-28T17:51:10.265Z,10.82
2023-03-28T17:53:39.582Z,11.05
2023-03-28T17:56:07.262Z,12.73
2023-03-28T17:58:34.168Z,11.45
2023-03-28T18:01:00.920Z,11.55
2023-03-28T18:03:28.112Z,10.40
2023-03-28T18:06:00.075Z,10.95
2023-03-28T18:08:28.477Z,8.95
2023-03-28T18:10:59.931Z,10.63
2023-03-28T18:13:26.766Z,10.32
2023-03-28T18:15:53.700Z,10.82
2023-03-28T18:18:20.421Z,7.45
2023-03-28T18:20:47.315Z,6.78
2023-03-28T18:23:14.155Z,9.65
2023-03-28T18:25:41.453Z,8.07
2023-03-28T18:28:08.176Z,12.77
2023-03-28T18:30:35.182Z,10.52
2023-03-28T18:33:01.967Z,8.88
2023-03-28T18:35:28.788Z,7.55
2023-03-28T18:37:56.789Z,7.72
2023-03-28T18:40:23.747Z,6.95
2023-03-28T18:42:50.689Z,8.27
2023-03-28T18:45:17.522Z,9.57
2023-03-28T18:47:44.225Z,11.40
2023-03-28T18:50:11.445Z,8.63
2023-03-28T18:52:38.841Z,8.95
2023-03-28T18:55:06.326Z,9.40
2023-03-28T18:57:33.309Z,7.95
2023-03-28T19:00:00.048Z,8.88
2023-03-28T19:02:28.997Z,9.50
2023-03-28T19:04:56.272Z,9.32
2023-03-28T19:07:23.011Z,9.05
2023-03-28T19:09:50.247Z,8.55
2023-03-28T19:12:17.064Z,9.07
2023-03-28T19:14:43.812Z,8.00
2023-03-28T19:17:10.733Z,10.10
2023-03-28T19:19:37.658Z,8.65
2023-03-28T19:22:06.482Z,8.18
2023-03-28T19:24:33.840Z,8.63
2023-03-28T19:27:02.545Z,9.30
2023-03-28T19:29:32.115Z,7.93
2023-03-28T19:31:58.886Z,8.48
2023-03-28T19:34:25.615Z,6.38
2023-03-28T19:36:52.291Z,7.07
2023-03-28T19:39:22.052Z,6.95
2023-03-28T19:41:48.992Z,5.35
2023-03-28T19:44:15.744Z,8.10
2023-03-28T19:46:42.453Z,8.00
2023-03-28T19:49:11.461Z,6.75
2023-03-28T19:51:38.415Z,7.10
2023-03-28T19:54:05.254Z,7.18
2023-03-28T19:56:32.172Z,9.85
2023-03-28T19:58:58.957Z,7.70
2023-03-28T20:01:25.954Z,6.25
2023-03-28T20:03:53.437Z,6.43
2023-03-28T20:06:21.635Z,6.72
2023-03-28T20:08:48.975Z,7.72
2023-03-28T20:11:16.970Z,8.60
2023-03-28T20:13:44.458Z,6.70
2023-03-28T20:16:12.511Z,6.53
2023-03-28T20:18:39.479Z,8.82
2023-03-28T20:21:10.081Z,7.68
2023-03-28T20:23:37.374Z,10.35
2023-03-28T20:26:18.907Z,9.48
2023-03-28T20:28:57.026Z,7.53
2023-03-28T20:31:25.765Z,8.55
2023-03-28T20:33:54.085Z,6.68
2023-03-28T20:36:21.236Z,8.38
2023-03-28T20:38:48.158Z,8.85
2023-03-28T20:41:20.705Z,9.60
2023-03-28T20:43:47.750Z,9.18
2023-03-28T20:46:21.372Z,11.95
2023-03-28T20:48:52.899Z,12.35
2023-03-28T20:51:23.096Z,8.93
2023-03-28T20:53:53.638Z,8.43
2023-03-28T20:56:21.621Z,9.25
2023-03-28T20:58:50.785Z,8.40
2023-03-28T21:01:28.114Z,7.35
2023-03-28T21:03:57.491Z,10.15
2023-03-28T21:06:30.570Z,5.32
2023-03-28T21:11:31.940Z,7.70
2023-03-28T21:14:00.036Z,7.95
2023-03-28T21:16:28.710Z,6.68
2023-03-28T21:18:56.216Z,7.25
2023-03-28T21:21:23.424Z,6.80
2023-03-28T21:23:50.233Z,8.10
2023-03-28T21:26:19.345Z,6.43
2023-03-28T21:28:47.154Z,9.38
2023-03-28T21:31:16.380Z,8.73
2023-03-28T21:33:43.394Z,8.48
2023-03-28T21:36:13.220Z,6.45
2023-03-28T21:38:40.580Z,9.50
2023-03-28T21:41:07.687Z,7.32
2023-03-28T21:43:35.130Z,7.97
2023-03-28T21:46:02.973Z,9.05
2023-03-28T21:48:30.324Z,8.52
2023-03-28T21:50:59.493Z,12.55
2023-03-28T21:53:32.745Z,10.80
2023-03-28T21:55:59.794Z,10.30
2023-03-28T21:58:30.381Z,9.30
2023-03-28T22:00:57.500Z,10.38
2023-03-28T22:03:25.084Z,12.07
2023-03-28T22:05:53.626Z,13.18
2023-03-28T22:08:22.297Z,10.68
2023-03-28T22:10:54.444Z,12.32
2023-03-28T22:13:21.405Z,12.20
2023-03-28T22:15:48.190Z,13.88
2023-03-28T22:18:15.842Z,15.75
2023-03-28T22:20:43.954Z,9.30
2023-03-28T22:23:11.197Z,12.82
2023-03-28T22:25:38.933Z,10.38
2023-03-28T22:28:09.382Z,10.68
2023-03-28T22:30:40.343Z,12.95
2023-03-28T22:33:09.857Z,10.73
2023-03-28T22:35:37.474Z,13.07
2023-03-28T22:38:05.192Z,10.73
2023-03-28T22:40:32.748Z,13.65
2023-03-28T22:42:59.716Z,14.73
2023-03-28T22:45:29.230Z,11.05
2023-03-28T22:48:00.328Z,11.40
2023-03-28T22:50:27.829Z,9.90
2023-03-28T22:52:54.728Z,9.73
2023-03-28T22:55:24.370Z,13.43
2023-03-28T22:57:52.498Z,12.10
2023-03-28T23:00:23.660Z,16.88
2023-03-28T23:02:52.114Z,12.35
2023-03-28T23:05:19.608Z,11.45
2023-03-28T23:07:46.671Z,10.65
2023-03-28T23:10:17.708Z,16.23
2023-03-28T23:12:45.063Z,12.25
2023-03-28T23:15:12.354Z,11.27
2023-03-28T23:17:39.806Z,10.85
2023-03-28T23:20:14.941Z,10.32
2023-03-28T23:22:44.340Z,11.48
2023-03-28T23:25:13.020Z,10.30
2023-03-28T23:27:40.063Z,9.85
2023-03-28T23:30:07.959Z,10.77
2023-03-28T23:32:35.217Z,8.05
2023-03-28T23:35:02.351Z,9.00
2023-03-28T23:37:29.230Z,8.68
2023-03-28T23:39:56.721Z,8.27
2023-03-28T23:42:24.896Z,8.32
2023-03-28T23:44:52.750Z,7.55
2023-03-28T23:47:23.347Z,7.95
2023-03-28T23:49:50.121Z,7.88
2023-03-28T23:52:17.078Z,8.68
2023-03-28T23:54:44.324Z,6.35
2023-03-28T23:57:11.807Z,9.07
2023-03-28T23:59:38.919Z,7.65
